Nova Santa Rita, Brazil
Current Conditions -  °F | °C
As of 6:00 PM on Friday 31 Oct 2014 (Local Time) from SBCO Reporting Station
Broken Clouds Broken Clouds  
Wind Chill: 79°   Ceiling: 4000
Heat Index: 81°   Visibility: 6mi
Dew Point: 68°   Wind: 16mph
Humidity: 69%   Direction: 170°S
Pressure: 29.88"   Gusts: NA
Location:  29.86°S, 51.27°W
Report Text: SBCO 312000Z 17014KT 9999 BKN040 26/20 Q1012
Loading
Personal Weather Stations






























Interactive Weather Map
Tropical Storm Tracking
New forecast layout! Learn more

10-Day Weather Forecast

Advertisements
Track Severe Weather on mobile